Time;durP1;ratioP1;P1;durP2;ratioP2;P2;SDS_P1;SDS_P2;PMS_P1;PMS_P2;Temp;Humidity;BMP_temperature;BMP_pressure;BME280_temperature;BME280_humidity;BME280_pressure;Samples;Min_cycle;Max_cycle;Signal;HPM_P1;HPM_P2
2021/06/12 00:01:09;;;;;;;8.40;7.10;;;20.70;99.90;;;;;;5110760;28;20934;-81
2021/06/12 00:03:36;;;;;;;10.10;7.60;;;20.70;99.90;;;;;;5111969;28;20462;-80
2021/06/12 00:06:04;;;;;;;9.67;8.20;;;20.60;99.90;;;;;;5093776;28;20884;-80
2021/06/12 00:08:34;;;;;;;14.23;8.00;;;20.60;99.90;;;;;;5093355;28;20505;-81
2021/06/12 00:11:01;;;;;;;9.33;7.63;;;20.60;99.90;;;;;;5101377;28;21518;-80
2021/06/12 00:13:28;;;;;;;8.33;6.97;;;20.60;99.90;;;;;;5112503;28;20545;-81
2021/06/12 00:15:55;;;;;;;10.47;8.00;;;20.60;99.90;;;;;;5114177;28;20986;-81
2021/06/12 00:18:22;;;;;;;10.53;7.80;;;20.50;99.90;;;;;;5104466;28;20460;-81
2021/06/12 00:20:49;;;;;;;8.37;6.63;;;20.50;99.90;;;;;;5102439;28;20474;-79
2021/06/12 00:23:17;;;;;;;9.03;6.67;;;20.50;99.90;;;;;;5107986;28;20431;-82
2021/06/12 00:25:43;;;;;;;10.83;7.60;;;20.50;99.90;;;;;;5107157;28;21263;-81
2021/06/12 00:28:29;;;;;;;8.57;7.13;;;20.50;99.90;;;;;;5097196;28;20447;-78
2021/06/12 00:30:55;;;;;;;8.77;7.87;;;20.50;99.90;;;;;;5097752;28;20443;-79
2021/06/12 00:33:22;;;;;;;8.57;7.70;;;20.50;99.90;;;;;;5099016;28;20773;-80
2021/06/12 00:35:48;;;;;;;9.07;7.20;;;20.50;99.90;;;;;;5108639;28;20466;-80
2021/06/12 00:38:16;;;;;;;9.93;8.13;;;20.50;99.90;;;;;;5106762;28;20462;-80
2021/06/12 00:40:43;;;;;;;9.50;7.50;;;20.50;99.90;;;;;;5105087;28;20450;-81
2021/06/12 00:43:09;;;;;;;9.73;8.60;;;20.50;99.90;;;;;;5112609;28;20437;-78
2021/06/12 00:45:36;;;;;;;8.97;7.80;;;20.40;99.90;;;;;;5104937;28;20475;-81
2021/06/12 00:48:03;;;;;;;9.10;7.67;;;20.40;99.90;;;;;;5107986;28;20478;-78
2021/06/12 00:50:34;;;;;;;9.10;8.10;;;20.40;99.90;;;;;;5106230;28;20443;-80
2021/06/12 00:53:01;;;;;;;8.57;7.77;;;20.40;99.90;;;;;;5111273;28;20534;-79
2021/06/12 00:55:29;;;;;;;9.30;8.23;;;20.40;99.90;;;;;;5103362;28;20518;-81
2021/06/12 00:57:57;;;;;;;16.53;8.37;;;20.40;99.90;;;;;;5103938;28;20458;-80
2021/06/12 01:00:24;;;;;;;12.27;9.40;;;20.40;99.90;;;;;;5103657;28;20466;-80
2021/06/12 01:02:51;;;;;;;11.00;8.30;;;20.40;99.90;;;;;;5114427;28;20442;-80
2021/06/12 01:05:19;;;;;;;9.40;7.70;;;20.40;99.90;;;;;;5110545;28;20450;-81
2021/06/12 01:07:46;;;;;;;12.60;9.60;;;20.40;99.90;;;;;;5103618;28;20482;-80
2021/06/12 01:10:15;;;;;;;10.93;8.47;;;20.30;99.90;;;;;;5097797;28;20423;-80
2021/06/12 01:12:53;;;;;;;11.83;8.93;;;20.40;99.90;;;;;;5105081;28;20446;-81
2021/06/12 01:15:20;;;;;;;10.03;7.97;;;20.40;99.90;;;;;;5111257;28;20430;-79
2021/06/12 01:17:53;;;;;;;10.50;8.87;;;20.40;99.90;;;;;;5108879;28;20991;-82
2021/06/12 01:20:39;;;;;;;11.40;8.13;;;20.30;99.90;;;;;;5092175;28;21015;-81
2021/06/12 01:23:27;;;;;;;10.90;8.20;;;20.30;99.90;;;;;;5099035;28;21052;-80
2021/06/12 01:26:02;;;;;;;10.20;8.57;;;20.30;99.90;;;;;;5097370;28;20483;-80
2021/06/12 01:28:43;;;;;;;13.53;9.70;;;20.30;99.90;;;;;;5100556;28;20503;-81
2021/06/12 01:31:13;;;;;;;10.80;8.37;;;20.30;99.90;;;;;;5114267;28;20440;-81
2021/06/12 01:33:43;;;;;;;9.97;8.20;;;20.30;99.90;;;;;;5107525;28;20451;-80
2021/06/12 01:36:11;;;;;;;13.60;9.70;;;20.30;99.90;;;;;;5102465;28;20828;-81
2021/06/12 01:38:43;;;;;;;11.83;8.70;;;20.20;99.90;;;;;;5112468;28;20446;-82
2021/06/12 01:41:12;;;;;;;10.77;8.40;;;20.20;99.90;;;;;;5105486;28;20458;-79
2021/06/12 01:43:39;;;;;;;9.83;8.53;;;20.20;99.90;;;;;;5090995;28;20451;-81
2021/06/12 01:46:08;;;;;;;10.33;8.27;;;20.10;99.90;;;;;;5107525;28;20482;-80
2021/06/12 01:48:36;;;;;;;10.07;8.93;;;20.10;99.90;;;;;;5105061;28;20473;-81
2021/06/12 01:51:05;;;;;;;12.00;10.13;;;20.10;99.90;;;;;;5100693;28;20453;-81
2021/06/12 01:53:32;;;;;;;10.97;9.70;;;20.10;99.90;;;;;;5111438;28;20458;-80
2021/06/12 01:56:02;;;;;;;11.50;9.97;;;20.00;99.90;;;;;;5102183;28;20620;-80
2021/06/12 01:58:29;;;;;;;10.83;9.00;;;20.00;99.90;;;;;;5110472;28;20457;-80
2021/06/12 02:00:56;;;;;;;11.53;9.00;;;20.00;99.90;;;;;;5107687;28;20454;-83
2021/06/12 02:03:25;;;;;;;12.30;9.47;;;20.00;99.90;;;;;;5104829;28;20462;-81
2021/06/12 02:05:54;;;;;;;14.70;10.40;;;20.00;99.90;;;;;;5110550;28;20851;-80
2021/06/12 02:08:22;;;;;;;10.73;9.10;;;20.00;99.90;;;;;;5105013;28;20549;-80
2021/06/12 02:10:51;;;;;;;11.80;9.43;;;20.00;99.90;;;;;;5104983;28;20446;-81
2021/06/12 02:13:20;;;;;;;10.40;8.63;;;20.00;99.90;;;;;;5115720;27;20818;-81
2021/06/12 02:15:52;;;;;;;11.50;9.63;;;20.00;99.90;;;;;;5110125;28;20481;-80
2021/06/12 02:18:20;;;;;;;10.90;9.40;;;20.00;99.90;;;;;;5105220;28;20454;-81
2021/06/12 02:20:49;;;;;;;9.87;8.23;;;20.00;99.90;;;;;;5111177;28;20495;-81
2021/06/12 02:23:18;;;;;;;15.27;10.90;;;20.00;99.90;;;;;;5111867;28;20454;-79
2021/06/12 02:25:46;;;;;;;15.97;9.73;;;20.00;99.90;;;;;;5115088;28;20491;-81
2021/06/12 02:28:13;;;;;;;15.77;10.67;;;20.00;99.90;;;;;;5113042;28;20470;-80
2021/06/12 02:30:44;;;;;;;13.20;10.23;;;20.00;99.90;;;;;;5110194;27;20461;-79
2021/06/12 02:33:14;;;;;;;15.40;11.10;;;20.10;99.90;;;;;;5113123;28;20435;-80
2021/06/12 02:35:41;;;;;;;15.67;10.67;;;20.10;99.90;;;;;;5104336;28;20527;-80
2021/06/12 02:38:08;;;;;;;17.60;11.20;;;20.10;99.90;;;;;;5114877;28;20438;-81
2021/06/12 02:40:36;;;;;;;16.73;11.00;;;20.10;99.90;;;;;;5111971;28;21045;-80
2021/06/12 02:43:02;;;;;;;14.73;11.37;;;20.10;99.90;;;;;;5105024;28;20455;-81
2021/06/12 02:45:31;;;;;;;15.67;10.30;;;20.00;99.90;;;;;;5111307;28;20988;-80
2021/06/12 02:48:00;;;;;;;12.63;10.03;;;20.00;99.90;;;;;;5105974;28;21516;-81
2021/06/12 02:50:30;;;;;;;20.00;12.17;;;20.00;99.90;;;;;;5099213;28;20550;-80
2021/06/12 02:53:01;;;;;;;13.40;11.53;;;20.00;99.90;;;;;;5106843;28;20451;-80
2021/06/12 02:55:29;;;;;;;15.33;11.23;;;20.00;99.90;;;;;;5109697;28;20462;-83
2021/06/12 02:57:58;;;;;;;13.20;10.37;;;20.00;99.90;;;;;;5113863;28;20933;-80
2021/06/12 03:00:25;;;;;;;13.33;10.80;;;20.00;99.90;;;;;;5111687;28;20541;-81
2021/06/12 03:02:52;;;;;;;15.77;12.00;;;20.00;99.90;;;;;;5112200;28;20458;-82
2021/06/12 03:05:24;;;;;;;16.03;11.27;;;20.00;99.90;;;;;;5108724;28;21261;-81
2021/06/12 03:07:54;;;;;;;12.50;10.60;;;20.00;99.90;;;;;;5099778;28;20749;-82
2021/06/12 03:10:22;;;;;;;13.13;10.57;;;20.00;99.90;;;;;;5113788;28;20446;-80
2021/06/12 03:12:50;;;;;;;13.23;11.57;;;20.00;99.90;;;;;;5113092;28;20461;-79
2021/06/12 03:15:19;;;;;;;17.20;12.13;;;20.00;99.90;;;;;;5100017;28;20927;-79
2021/06/12 03:17:46;;;;;;;16.70;11.27;;;20.00;99.90;;;;;;5114083;28;20545;-81
2021/06/12 03:20:14;;;;;;;17.03;12.27;;;20.00;99.90;;;;;;5116374;28;21005;-81
2021/06/12 03:22:43;;;;;;;18.30;12.40;;;20.00;99.90;;;;;;5105051;28;20463;-81
2021/06/12 03:25:11;;;;;;;17.27;10.87;;;20.00;99.90;;;;;;5116323;28;20446;-81
2021/06/12 03:27:39;;;;;;;13.77;11.00;;;20.00;99.90;;;;;;5112424;28;20485;-82
2021/06/12 03:30:07;;;;;;;17.70;11.70;;;20.00;99.90;;;;;;5107797;28;20453;-82
2021/06/12 03:32:35;;;;;;;13.83;11.50;;;20.10;99.90;;;;;;5112641;28;20464;-82
2021/06/12 03:35:03;;;;;;;15.10;12.20;;;20.10;99.90;;;;;;5103326;28;20450;-82
2021/06/12 03:37:31;;;;;;;17.73;11.27;;;20.10;99.90;;;;;;5096937;28;20474;-81
2021/06/12 03:39:58;;;;;;;16.20;11.70;;;20.10;99.90;;;;;;5100253;28;20462;-80
2021/06/12 03:42:26;;;;;;;18.50;12.63;;;20.10;99.90;;;;;;5101843;28;20507;-81
2021/06/12 03:44:58;;;;;;;15.97;12.20;;;20.10;99.90;;;;;;5107144;28;20446;-81
2021/06/12 03:47:26;;;;;;;14.83;11.90;;;20.10;99.90;;;;;;5111755;28;20482;-82
2021/06/12 03:49:54;;;;;;;18.70;13.87;;;20.10;99.90;;;;;;5109912;28;20451;-83
2021/06/12 03:52:26;;;;;;;18.43;13.40;;;20.10;99.90;;;;;;5108762;28;20463;-79
2021/06/12 03:54:54;;;;;;;19.03;13.30;;;20.10;99.90;;;;;;5112109;28;20549;-81
2021/06/12 03:57:21;;;;;;;17.20;12.70;;;20.10;99.90;;;;;;5104409;28;20474;-80
2021/06/12 03:59:47;;;;;;;19.00;13.10;;;20.10;99.90;;;;;;5108480;28;20829;-83
2021/06/12 04:02:16;;;;;;;20.43;14.37;;;20.10;99.90;;;;;;5103169;28;20535;-84
2021/06/12 04:04:44;;;;;;;21.20;13.90;;;20.10;99.90;;;;;;5110076;28;20516;-81
2021/06/12 04:07:12;;;;;;;18.57;12.80;;;20.10;99.90;;;;;;5110003;28;21055;-79
2021/06/12 04:09:39;;;;;;;19.50;13.00;;;20.10;99.90;;;;;;5113012;28;20455;-81
2021/06/12 04:12:06;;;;;;;21.90;13.20;;;20.10;99.90;;;;;;5109459;28;20792;-81
2021/06/12 04:14:33;;;;;;;17.00;12.93;;;20.10;99.90;;;;;;5108071;28;20442;-79
2021/06/12 04:17:00;;;;;;;17.77;11.90;;;20.10;99.90;;;;;;5110843;28;20474;-80
2021/06/12 04:19:26;;;;;;;17.30;13.10;;;20.10;99.90;;;;;;5102876;28;20566;-82
2021/06/12 04:21:53;;;;;;;17.07;12.20;;;20.20;99.90;;;;;;5113205;28;20443;-81
2021/06/12 04:24:21;;;;;;;15.03;11.67;;;20.20;99.90;;;;;;5109807;28;20454;-81
2021/06/12 04:26:48;;;;;;;15.33;10.33;;;20.20;99.90;;;;;;5097195;28;20531;-82
2021/06/12 04:29:14;;;;;;;16.70;11.37;;;20.20;99.90;;;;;;5103096;28;20951;-84
2021/06/12 04:31:40;;;;;;;15.90;11.13;;;20.30;99.90;;;;;;5111415;28;20450;-79
2021/06/12 04:34:07;;;;;;;11.80;9.80;;;20.30;99.90;;;;;;5110727;28;20441;-82
2021/06/12 04:36:34;;;;;;;13.63;10.17;;;20.30;99.90;;;;;;5104017;28;20497;-81
2021/06/12 04:39:00;;;;;;;14.90;10.90;;;20.30;99.90;;;;;;5110400;28;20429;-82
2021/06/12 04:41:30;;;;;;;10.53;9.17;;;20.30;99.90;;;;;;5106216;28;20935;-82
2021/06/12 04:43:57;;;;;;;12.63;10.03;;;20.30;99.90;;;;;;5112938;28;20453;-80
2021/06/12 04:46:23;;;;;;;13.20;9.23;;;20.30;99.90;;;;;;5111882;28;20975;-81
2021/06/12 04:48:50;;;;;;;14.80;9.90;;;20.30;99.90;;;;;;5106645;28;21023;-81
2021/06/12 04:51:17;;;;;;;12.27;8.57;;;20.30;99.90;;;;;;5112962;28;20819;-80
2021/06/12 04:53:43;;;;;;;12.03;8.90;;;20.30;99.90;;;;;;5100939;28;20786;-81
2021/06/12 04:56:09;;;;;;;10.73;8.70;;;20.40;99.90;;;;;;5104694;28;20474;-80
2021/06/12 04:58:37;;;;;;;12.70;7.73;;;20.40;99.90;;;;;;5112964;28;20451;-82
2021/06/12 05:01:04;;;;;;;9.40;7.47;;;20.40;99.90;;;;;;5101728;28;20455;-81
2021/06/12 05:03:30;;;;;;;11.13;7.13;;;20.50;99.90;;;;;;5093687;28;20458;-82
2021/06/12 05:05:58;;;;;;;10.03;6.87;;;20.50;99.90;;;;;;5104399;28;20979;-81
2021/06/12 05:08:25;;;;;;;10.30;7.37;;;20.60;99.90;;;;;;5112708;28;20492;-80
2021/06/12 05:10:51;;;;;;;8.40;7.50;;;20.60;99.90;;;;;;5107228;28;20462;-80
2021/06/12 05:13:18;;;;;;;10.03;6.90;;;20.70;99.90;;;;;;5104117;28;20915;-81
2021/06/12 05:15:47;;;;;;;9.93;6.33;;;20.80;99.90;;;;;;5105002;28;20530;-79
2021/06/12 05:18:14;;;;;;;9.30;5.80;;;20.90;99.90;;;;;;5109206;28;20479;-81
2021/06/12 05:20:41;;;;;;;8.80;5.50;;;21.00;99.90;;;;;;5110193;28;20466;-79
2021/06/12 05:23:08;;;;;;;6.20;4.93;;;21.10;99.90;;;;;;5112229;28;20450;-82
2021/06/12 05:25:36;;;;;;;10.60;5.30;;;21.20;99.90;;;;;;5110662;28;20533;-81
2021/06/12 05:28:02;;;;;;;7.30;4.40;;;21.30;99.90;;;;;;5111058;28;20490;-80
2021/06/12 05:30:29;;;;;;;5.70;3.90;;;21.50;99.90;;;;;;5112292;28;20423;-80
2021/06/12 05:32:57;;;;;;;7.23;4.00;;;21.70;99.90;;;;;;5109325;28;20446;-81
2021/06/12 05:35:24;;;;;;;4.87;3.77;;;21.90;99.90;;;;;;5114135;28;20442;-80
2021/06/12 05:37:51;;;;;;;7.90;4.27;;;22.20;99.90;;;;;;5104653;28;20462;-82
2021/06/12 05:40:17;;;;;;;5.00;3.93;;;22.40;99.90;;;;;;5098733;28;20453;-82
2021/06/12 05:42:44;;;;;;;4.30;3.90;;;22.60;99.90;;;;;;5111448;28;20800;-81
2021/06/12 05:45:11;;;;;;;4.60;4.07;;;22.80;99.90;;;;;;5099627;28;20454;-81
2021/06/12 05:47:40;;;;;;;4.53;3.73;;;22.90;99.90;;;;;;5103789;28;20489;-80
2021/06/12 05:50:09;;;;;;;4.70;4.00;;;23.10;99.90;;;;;;5111032;28;20549;-81
2021/06/12 05:52:35;;;;;;;4.40;4.00;;;23.20;99.90;;;;;;5106109;28;20443;-82
2021/06/12 05:55:02;;;;;;;4.57;3.70;;;23.30;99.90;;;;;;5106056;28;21139;-83
2021/06/12 05:57:28;;;;;;;5.20;2.97;;;23.40;99.90;;;;;;5104562;28;20479;-82
2021/06/12 05:59:55;;;;;;;4.50;3.40;;;23.50;99.90;;;;;;5111762;28;20456;-79
2021/06/12 06:02:21;;;;;;;5.73;3.23;;;23.60;99.90;;;;;;5110639;28;20458;-81
2021/06/12 06:04:49;;;;;;;3.30;2.80;;;23.80;99.90;;;;;;5102258;28;20497;-80
2021/06/12 06:07:17;;;;;;;3.60;2.60;;;23.90;99.90;;;;;;5112077;28;20474;-82
2021/06/12 06:09:44;;;;;;;3.20;2.90;;;24.10;99.90;;;;;;5106094;28;20442;-80
2021/06/12 06:12:11;;;;;;;4.73;3.33;;;24.30;99.90;;;;;;5098117;28;20451;-80
2021/06/12 06:14:37;;;;;;;3.27;2.97;;;24.60;99.90;;;;;;5093318;28;20447;-78
2021/06/12 06:17:04;;;;;;;2.90;2.33;;;24.90;99.90;;;;;;5106750;28;21001;-82
2021/06/12 06:19:31;;;;;;;3.20;2.80;;;25.30;99.90;;;;;;5111275;28;20470;-80
2021/06/12 06:21:58;;;;;;;3.43;2.80;;;25.60;99.90;;;;;;5103496;28;20459;-78
2021/06/12 06:24:26;;;;;;;2.70;2.50;;;26.10;99.90;;;;;;5100830;28;20458;-85
2021/06/12 06:26:52;;;;;;;3.20;2.90;;;26.40;99.90;;;;;;5108187;28;20509;-83
2021/06/12 06:29:19;;;;;;;5.43;2.50;;;26.60;99.90;;;;;;5108294;28;20920;-80
2021/06/12 06:31:45;;;;;;;3.47;2.63;;;27.00;99.90;;;;;;5110219;28;20438;-80
2021/06/12 06:34:12;;;;;;;4.70;2.90;;;27.30;99.90;;;;;;5103956;28;20882;-83
2021/06/12 06:36:39;;;;;;;2.47;2.10;;;27.40;99.90;;;;;;5100569;28;20451;-79
2021/06/12 06:39:06;;;;;;;5.20;2.10;;;27.60;99.90;;;;;;5107368;28;20941;-82
2021/06/12 06:41:34;;;;;;;3.10;2.23;;;27.70;99.90;;;;;;5101207;28;20537;-82
2021/06/12 06:44:01;;;;;;;2.27;1.93;;;27.90;99.90;;;;;;5102472;28;20490;-79
2021/06/12 06:46:28;;;;;;;3.57;2.27;;;28.10;99.90;;;;;;5102773;28;20458;-83
2021/06/12 06:48:54;;;;;;;4.77;2.17;;;28.20;99.90;;;;;;5101973;28;20565;-80
2021/06/12 06:51:21;;;;;;;3.63;2.60;;;28.30;99.90;;;;;;5099048;28;21968;-82
2021/06/12 06:53:48;;;;;;;2.70;2.10;;;28.30;99.90;;;;;;5109178;28;20477;-81
2021/06/12 06:56:15;;;;;;;4.53;2.70;;;28.30;99.90;;;;;;5109968;28;20812;-77
2021/06/12 06:58:43;;;;;;;2.77;1.80;;;28.40;99.90;;;;;;5098297;28;20546;-78
2021/06/12 07:01:09;;;;;;;5.17;2.23;;;28.50;99.90;;;;;;5102442;28;20541;-80
2021/06/12 07:03:37;;;;;;;3.97;2.20;;;28.60;99.90;;;;;;5112018;28;20466;-87
2021/06/12 07:06:04;;;;;;;3.00;2.07;;;28.60;99.90;;;;;;5111571;28;20454;-85
2021/06/12 07:08:30;;;;;;;3.30;2.50;;;28.60;99.90;;;;;;5099293;28;20493;-86
2021/06/12 07:10:57;;;;;;;3.47;2.50;;;28.50;99.90;;;;;;5106808;28;20551;-86
2021/06/12 07:13:25;;;;;;;4.07;2.60;;;28.50;99.90;;;;;;5107587;28;20474;-88
2021/06/12 07:15:53;;;;;;;3.33;2.30;;;28.50;99.90;;;;;;5097704;28;20564;-84
2021/06/12 07:18:20;;;;;;;5.17;2.13;;;28.60;99.90;;;;;;5107896;28;20481;-85
2021/06/12 07:20:47;;;;;;;2.47;2.13;;;28.80;99.90;;;;;;5116526;28;20542;-90
2021/06/12 07:23:15;;;;;;;3.07;2.50;;;28.90;99.90;;;;;;5113196;28;20446;-90
2021/06/12 07:25:42;;;;;;;2.47;2.27;;;29.10;99.90;;;;;;5110814;28;20474;-88
2021/06/12 07:28:09;;;;;;;6.80;2.73;;;29.10;99.90;;;;;;5110578;28;20504;-87
2021/06/12 07:30:39;;;;;;;3.17;2.87;;;29.20;99.90;;;;;;5097837;28;21697;-88
2021/06/12 07:33:08;;;;;;;3.30;3.00;;;29.30;99.90;;;;;;5112805;28;20457;-89
2021/06/12 07:35:34;;;;;;;6.27;5.30;;;29.40;99.90;;;;;;5112650;28;20473;-84
2021/06/12 07:38:02;;;;;;;5.20;4.70;;;29.50;99.90;;;;;;5104869;28;20488;-86
2021/06/12 07:40:30;;;;;;;4.00;3.63;;;29.60;99.90;;;;;;5116254;28;20473;-85
2021/06/12 07:42:57;;;;;;;4.07;2.80;;;29.70;99.90;;;;;;5115464;28;20477;-86
2021/06/12 07:45:25;;;;;;;4.60;2.60;;;29.80;99.90;;;;;;5104457;28;20467;-79
2021/06/12 07:47:52;;;;;;;3.50;2.97;;;29.90;99.90;;;;;;5111884;28;20561;-79
2021/06/12 07:50:20;;;;;;;4.90;3.30;;;30.00;99.90;;;;;;5108380;28;20451;-80
2021/06/12 07:52:47;;;;;;;4.40;4.00;;;30.00;99.90;;;;;;5113453;28;20486;-81
2021/06/12 07:55:17;;;;;;;4.23;3.83;;;29.80;99.90;;;;;;5112074;28;20468;-82
2021/06/12 07:57:44;;;;;;;4.53;4.13;;;29.50;99.90;;;;;;5111954;28;20531;-82
2021/06/12 08:00:12;;;;;;;8.40;5.30;;;29.30;99.90;;;;;;5113960;28;21005;-85
2021/06/12 08:02:38;;;;;;;5.60;3.80;;;29.20;99.90;;;;;;5106050;28;21645;-88
2021/06/12 08:05:07;;;;;;;8.50;5.30;;;29.30;99.90;;;;;;5101731;28;20459;-83
2021/06/12 08:07:35;;;;;;;7.10;5.23;;;29.30;99.90;;;;;;5099413;27;20521;-85
2021/06/12 08:10:03;;;;;;;5.63;5.07;;;29.30;99.90;;;;;;5103098;28;20458;-83
2021/06/12 08:12:30;;;;;;;6.80;4.90;;;29.30;99.90;;;;;;5110173;28;21225;-81
2021/06/12 08:14:56;;;;;;;4.03;3.67;;;29.40;99.90;;;;;;5105630;28;20823;-83
2021/06/12 08:17:23;;;;;;;4.30;3.90;;;29.40;99.90;;;;;;5110045;28;20544;-84
2021/06/12 08:19:50;;;;;;;6.03;5.00;;;29.50;99.90;;;;;;5102987;28;20513;-82
2021/06/12 08:22:16;;;;;;;6.23;5.63;;;29.70;99.90;;;;;;5110620;28;20927;-83
2021/06/12 08:24:45;;;;;;;6.60;5.97;;;29.80;99.90;;;;;;5102370;28;20515;-80
2021/06/12 08:27:11;;;;;;;6.20;5.70;;;29.70;99.90;;;;;;5110930;27;20525;-85
2021/06/12 08:29:38;;;;;;;6.23;5.63;;;29.50;99.90;;;;;;5112707;28;20539;-84
2021/06/12 08:32:06;;;;;;;5.60;5.10;;;29.30;99.90;;;;;;5100676;28;21014;-83
2021/06/12 08:34:33;;;;;;;7.00;4.50;;;28.90;99.90;;;;;;5104349;28;20485;-83
2021/06/12 08:37:00;;;;;;;8.10;5.00;;;28.60;99.90;;;;;;5107965;28;20494;-84
2021/06/12 08:39:26;;;;;;;5.40;4.90;;;28.40;99.90;;;;;;5104009;28;20455;-81
2021/06/12 08:41:55;;;;;;;5.77;5.17;;;28.10;38.40;;;;;;5111131;28;20970;-82
2021/06/12 08:44:25;;;;;;;5.63;5.13;;;27.90;8.00;;;;;;5113040;28;20438;-85
2021/06/12 08:46:52;;;;;;;6.50;5.57;;;27.60;1.00;;;;;;5105833;28;20574;-80
2021/06/12 08:49:20;;;;;;;7.90;7.10;;;27.30;1.00;;;;;;5107961;28;20481;-84
2021/06/12 08:51:47;;;;;;;7.67;6.97;;;27.10;1.00;;;;;;5107791;28;20455;-82
2021/06/12 08:54:15;;;;;;;6.03;5.43;;;26.70;1.00;;;;;;5111080;28;20871;-84
2021/06/12 08:56:42;;;;;;;7.00;6.40;;;26.50;1.00;;;;;;5110487;28;20478;-88
2021/06/12 08:59:11;;;;;;;7.37;6.63;;;26.20;1.00;;;;;;5095803;28;20461;-87
2021/06/12 09:01:37;;;;;;;9.20;8.30;;;26.00;1.00;;;;;;5109543;28;20423;-81
2021/06/12 09:04:04;;;;;;;7.57;6.90;;;25.70;99.90;;;;;;5088778;28;20527;-83
2021/06/12 09:06:31;;;;;;;8.20;7.40;;;25.40;99.90;;;;;;5107000;28;20508;-81
2021/06/12 09:08:58;;;;;;;7.97;7.17;;;25.20;99.90;;;;;;5100122;28;20584;-85
2021/06/12 09:11:25;;;;;;;8.13;7.43;;;24.90;99.90;;;;;;5112632;28;20469;-86
2021/06/12 09:13:54;;;;;;;7.83;7.13;;;24.60;99.90;;;;;;5101713;28;20450;-81
2021/06/12 09:16:29;;;;;;;10.00;9.20;;;24.40;99.90;;;;;;5095388;28;20492;-83
2021/06/12 09:18:59;;;;;;;9.60;8.70;;;24.20;99.90;;;;;;5084938;28;20987;-86
2021/06/12 09:21:28;;;;;;;9.60;8.70;;;23.90;99.90;;;;;;5100939;28;20752;-84
2021/06/12 09:23:57;;;;;;;9.60;8.00;;;23.70;99.90;;;;;;5105901;28;21007;-86
2021/06/12 09:26:41;;;;;;;9.97;9.07;;;23.50;99.90;;;;;;5109267;28;20469;-84
2021/06/12 09:29:08;;;;;;;12.60;10.33;;;23.30;99.90;;;;;;5098956;28;21005;-84
2021/06/12 09:31:44;;;;;;;10.97;9.47;;;23.20;99.90;;;;;;5111655;28;20438;-83
2021/06/12 09:34:13;;;;;;;11.53;9.77;;;23.00;99.90;;;;;;5108323;28;20454;-81
2021/06/12 09:36:40;;;;;;;10.00;8.40;;;22.80;99.90;;;;;;5096414;28;20477;-81
2021/06/12 09:39:09;;;;;;;10.00;8.83;;;22.80;99.90;;;;;;5095716;28;20606;-84
2021/06/12 09:41:42;;;;;;;9.53;8.60;;;22.70;99.90;;;;;;5103211;28;20513;-86
2021/06/12 09:44:09;;;;;;;8.03;7.23;;;22.60;99.90;;;;;;5111925;28;20447;-83
2021/06/12 09:46:41;;;;;;;8.80;7.10;;;22.60;99.90;;;;;;5108401;28;20478;-84
2021/06/12 09:49:10;;;;;;;10.17;9.10;;;22.50;99.90;;;;;;5112938;28;20509;-88
2021/06/12 09:51:37;;;;;;;9.20;7.27;;;22.50;99.90;;;;;;5104727;28;20469;-84
2021/06/12 09:54:07;;;;;;;9.27;8.00;;;22.60;99.90;;;;;;5113460;28;20434;-84
2021/06/12 09:56:35;;;;;;;8.43;7.17;;;22.60;99.90;;;;;;5109685;28;20506;-83
2021/06/12 09:59:17;;;;;;;8.60;7.80;;;22.70;99.90;;;;;;5101407;28;20450;-84
2021/06/12 10:01:50;;;;;;;8.80;7.90;;;22.80;99.90;;;;;;5105740;28;20451;-84
2021/06/12 10:04:17;;;;;;;9.43;8.53;;;22.90;99.90;;;;;;5086320;28;20813;-80
2021/06/12 10:06:44;;;;;;;9.37;8.10;;;23.00;99.90;;;;;;5111426;28;20459;-83
2021/06/12 10:09:11;;;;;;;10.07;7.67;;;23.20;99.90;;;;;;5101775;28;21014;-80
2021/06/12 10:11:40;;;;;;;8.40;7.60;;;23.20;99.90;;;;;;5110429;28;20486;-81
2021/06/12 10:14:10;;;;;;;9.03;7.97;;;23.30;99.90;;;;;;5105833;28;20557;-88
2021/06/12 10:16:41;;;;;;;10.00;8.40;;;23.40;99.90;;;;;;5093598;28;20470;-81
2021/06/12 10:19:10;;;;;;;10.27;9.17;;;23.50;99.90;;;;;;5110728;28;20474;-79
2021/06/12 10:21:37;;;;;;;9.67;7.83;;;23.50;99.90;;;;;;5100262;28;20960;-81
2021/06/12 10:24:06;;;;;;;8.77;7.97;;;23.60;99.90;;;;;;5096547;28;20815;-82
2021/06/12 10:26:33;;;;;;;8.97;8.07;;;23.50;99.90;;;;;;5097435;28;20534;-79
2021/06/12 10:29:01;;;;;;;8.70;7.90;;;23.50;99.90;;;;;;5108936;28;20474;-81
2021/06/12 10:31:30;;;;;;;11.20;8.70;;;23.60;99.90;;;;;;5108815;28;20450;-82
2021/06/12 10:33:57;;;;;;;8.73;7.83;;;23.60;99.90;;;;;;5098756;28;20454;-81
2021/06/12 10:36:27;;;;;;;8.77;7.70;;;23.60;99.90;;;;;;5103720;27;20513;-80
2021/06/12 10:38:55;;;;;;;9.03;7.53;;;23.60;99.90;;;;;;5115423;28;20859;-80
2021/06/12 10:41:24;;;;;;;8.70;7.80;;;23.70;99.90;;;;;;5111779;28;20799;-78
2021/06/12 10:43:53;;;;;;;9.17;6.37;;;23.70;99.90;;;;;;5106995;28;20788;-81
2021/06/12 10:46:21;;;;;;;7.20;6.37;;;23.70;99.90;;;;;;5109929;28;20450;-79
2021/06/12 10:48:52;;;;;;;7.57;6.73;;;23.70;99.90;;;;;;5105682;28;20486;-82
2021/06/12 10:51:45;;;;;;;7.70;6.90;;;23.80;99.90;;;;;;5113528;28;20488;-83
2021/06/12 10:54:19;;;;;;;9.00;8.13;;;23.80;99.90;;;;;;5117468;27;20448;-79
2021/06/12 10:56:48;;;;;;;8.70;7.90;;;23.80;99.90;;;;;;5102124;28;20531;-82
2021/06/12 10:59:40;;;;;;;9.13;8.33;;;23.80;99.90;;;;;;5092460;28;20804;-82
2021/06/12 11:02:10;;;;;;;7.73;7.00;;;23.80;99.90;;;;;;5095833;28;20453;-79
2021/06/12 11:04:42;;;;;;;8.43;7.53;;;23.90;99.90;;;;;;5095649;28;20971;-81
2021/06/12 11:07:27;;;;;;;7.63;6.93;;;24.00;99.90;;;;;;5092944;28;20866;-78
2021/06/12 11:10:16;;;;;;;7.60;6.80;;;24.00;99.90;;;;;;5103432;28;20458;-82
2021/06/12 11:12:44;;;;;;;11.47;8.07;;;24.10;99.90;;;;;;5100538;28;20453;-82
2021/06/12 11:15:14;;;;;;;7.20;6.50;;;24.10;99.90;;;;;;5114312;27;20447;-83
2021/06/12 11:17:43;;;;;;;8.53;7.67;;;24.20;99.90;;;;;;5112449;28;21014;-79
2021/06/12 11:20:26;;;;;;;8.40;7.60;;;24.20;99.90;;;;;;5113305;28;20481;-83
2021/06/12 11:22:57;;;;;;;8.90;8.10;;;24.30;99.90;;;;;;5108142;28;20454;-84
2021/06/12 11:25:42;;;;;;;8.90;8.00;;;24.40;99.90;;;;;;5112385;28;20460;-81
2021/06/12 11:28:21;;;;;;;8.13;7.30;;;24.50;99.90;;;;;;5106796;28;20479;-80
2021/06/12 11:30:48;;;;;;;10.27;9.23;;;24.50;99.90;;;;;;5099630;28;20446;-82
2021/06/12 11:33:15;;;;;;;9.80;8.90;;;24.60;99.90;;;;;;5105799;28;20457;-80
2021/06/12 11:35:45;;;;;;;13.60;8.30;;;24.60;99.90;;;;;;5111012;28;21012;-83
2021/06/12 11:38:15;;;;;;;8.40;7.60;;;24.70;99.90;;;;;;5105538;28;20518;-85
2021/06/12 11:40:52;;;;;;;9.13;8.23;;;24.80;99.90;;;;;;5103210;28;20857;-89
2021/06/12 11:43:36;;;;;;;11.73;8.30;;;24.90;99.90;;;;;;5113655;28;20434;-88
2021/06/12 11:46:03;;;;;;;11.73;10.53;;;25.00;99.90;;;;;;5096948;28;20590;-86
2021/06/12 11:48:38;;;;;;;10.93;9.77;;;25.10;99.90;;;;;;5110115;28;20478;-88
2021/06/12 11:51:15;;;;;;;10.57;9.60;;;25.20;99.90;;;;;;5107676;28;20446;-87
2021/06/12 11:53:59;;;;;;;8.80;8.00;;;25.30;99.90;;;;;;5099589;28;20465;-86
2021/06/12 11:56:31;;;;;;;11.63;10.20;;;25.40;99.90;;;;;;5093400;28;20463;-89
2021/06/12 11:58:58;;;;;;;10.43;9.43;;;25.40;99.90;;;;;;5109026;28;20450;-86
2021/06/12 12:01:41;;;;;;;11.23;9.80;;;25.50;99.90;;;;;;5116162;28;20454;-87
2021/06/12 12:04:10;;;;;;;8.97;7.87;;;25.60;99.90;;;;;;5108621;28;20458;-85
2021/06/12 12:06:37;;;;;;;11.00;8.73;;;25.70;99.90;;;;;;5113427;28;20478;-89
2021/06/12 12:09:06;;;;;;;10.27;9.10;;;25.70;99.90;;;;;;5116123;28;20531;-88
2021/06/12 12:11:33;;;;;;;12.93;9.77;;;25.80;99.90;;;;;;5100723;28;20852;-87
2021/06/12 12:14:03;;;;;;;10.33;9.20;;;25.80;99.90;;;;;;5097124;27;20465;-88
2021/06/12 12:16:31;;;;;;;15.07;9.70;;;25.90;99.90;;;;;;5105784;28;20482;-86
2021/06/12 12:18:59;;;;;;;11.37;9.20;;;25.90;99.90;;;;;;5113561;28;20446;-86
2021/06/12 12:21:31;;;;;;;11.37;9.83;;;25.90;99.90;;;;;;5103779;28;20917;-84
2021/06/12 12:23:58;;;;;;;12.20;11.00;;;25.90;99.90;;;;;;5113527;28;20461;-86
2021/06/12 12:26:26;;;;;;;12.07;10.87;;;25.90;99.90;;;;;;5106885;28;20917;-87
2021/06/12 12:28:54;;;;;;;12.30;11.10;;;26.00;99.90;;;;;;5111113;28;20534;-85
2021/06/12 12:31:21;;;;;;;11.33;9.70;;;26.00;99.90;;;;;;5099429;28;20447;-87
2021/06/12 12:33:50;;;;;;;11.57;10.37;;;26.00;99.90;;;;;;5104193;28;20454;-87
2021/06/12 12:36:18;;;;;;;11.13;9.30;;;26.00;99.90;;;;;;5109764;27;20489;-85
2021/06/12 12:38:55;;;;;;;9.87;8.80;;;26.00;99.90;;;;;;5087648;28;20470;-86
2021/06/12 12:41:21;;;;;;;10.73;9.60;;;25.90;99.90;;;;;;5128207;27;20442;-85
2021/06/12 12:44:05;;;;;;;10.80;9.40;;;25.90;99.90;;;;;;5113305;28;20511;-87
2021/06/12 12:46:32;;;;;;;13.43;10.53;;;25.90;99.90;;;;;;5104311;28;20474;-86
2021/06/12 12:49:01;;;;;;;10.90;9.80;;;25.90;99.90;;;;;;5108709;28;20889;-88